Time;durP1;ratioP1;P1;durP2;ratioP2;P2;SDS_P1;SDS_P2;PMS_P1;PMS_P2;Temp;Humidity;BMP_temperature;BMP_pressure;BME280_temperature;BME280_humidity;BME280_pressure;Samples;Min_cycle;Max_cycle;Signal;HPM_P1;HPM_P2
2021/12/07 00:00:51;;;;;;;24.13;17.27;;;;;;;-0.02;100.00;100334.44;5242313;28;20083;-82
2021/12/07 00:03:22;;;;;;;;;;;;;;;-0.01;100.00;100346.38;5260965;28;20031;-86
2021/12/07 00:05:54;;;;;;;26.27;18.55;;;;;;;-0.01;100.00;100351.50;5260006;28;19920;-87
2021/12/07 00:08:27;;;;;;;23.43;17.43;;;;;;;-0.02;100.00;100343.78;5260304;28;20106;-74
2021/12/07 00:10:59;;;;;;;24.67;18.02;;;;;;;-0.03;100.00;100349.75;5261859;28;20076;-81
2021/12/07 00:13:35;;;;;;;30.67;22.43;;;;;;;0.00;100.00;100354.97;5265967;28;20092;-81
2021/12/07 00:16:27;;;;;;;29.60;20.65;;;;;;;0.04;100.00;100350.78;5272228;28;20033;-78
2021/12/07 00:19:05;;;;;;;30.63;21.13;;;;;;;0.05;100.00;100350.81;5273306;28;20029;-75
2021/12/07 00:21:38;;;;;;;31.55;22.60;;;;;;;0.08;100.00;100352.56;5270328;28;20052;-80
2021/12/07 00:24:11;;;;;;;33.50;22.77;;;;;;;0.11;100.00;100362.88;5254875;28;20072;-85
2021/12/07 00:26:44;;;;;;;31.52;22.95;;;;;;;0.13;100.00;100362.09;5255539;28;20047;-84
2021/12/07 00:29:16;;;;;;;36.08;25.77;;;;;;;0.16;100.00;100366.41;5247251;28;20459;-86
2021/12/07 00:32:06;;;;;;;36.77;25.67;;;;;;;0.23;100.00;100372.56;5245658;28;20032;-85
2021/12/07 00:34:45;;;;;;;36.15;26.30;;;;;;;0.26;100.00;100370.94;5252772;28;20034;-83
2021/12/07 00:37:16;;;;;;;38.22;27.42;;;;;;;0.32;100.00;100370.19;5255644;28;20036;-83
2021/12/07 00:39:48;;;;;;;42.00;26.23;;;;;;;0.34;100.00;100374.53;5252854;28;20033;-77
2021/12/07 00:42:20;;;;;;;43.93;28.60;;;;;;;0.38;100.00;100385.72;5260608;28;20029;-74
2021/12/07 00:44:52;;;;;;;51.67;31.70;;;;;;;0.47;100.00;100396.19;5246937;28;20029;-88
2021/12/07 00:47:23;;;;;;;49.13;31.00;;;;;;;0.52;100.00;100393.72;5240908;28;20068;-85
2021/12/07 00:49:54;;;;;;;54.10;31.07;;;;;;;0.53;100.00;100390.28;5241662;28;20025;-89
2021/12/07 00:52:26;;;;;;;47.00;30.63;;;;;;;0.64;100.00;100409.34;5241889;28;20037;-77
2021/12/07 00:54:57;;;;;;;54.33;32.40;;;;;;;0.70;100.00;100400.94;5243448;28;20483;-80
2021/12/07 00:57:29;;;;;;;53.57;37.00;;;;;;;0.91;100.00;100408.22;5241879;28;20029;-86
2021/12/07 01:00:03;;;;;;;56.40;34.43;;;;;;;0.97;100.00;100410.03;5241434;28;20523;-81
2021/12/07 01:02:34;;;;;;;64.47;33.80;;;;;;;1.08;100.00;100417.13;5249533;28;20561;-79
2021/12/07 01:05:14;;;;;;;66.80;35.53;;;;;;;1.33;100.00;100419.28;5247756;28;20080;-81
2021/12/07 01:24:40;;;;;;;46.40;26.38;;;;;;;1.74;100.00;100458.59;5197002;28;20034;-85
2021/12/07 01:27:17;;;;;;;55.78;27.20;;;;;;;1.75;100.00;100467.16;5196164;28;20034;-87
2021/12/07 01:30:02;;;;;;;46.13;25.38;;;;;;;1.72;100.00;100467.09;5195948;28;20034;-85
2021/12/07 02:00:17;;;;;;;41.92;18.75;;;;;;;1.89;100.00;100513.69;5239742;28;20033;-86
2021/12/07 02:02:49;;;;;;;42.78;18.20;;;;;;;1.93;100.00;100502.59;5240439;28;20021;-84
2021/12/07 02:05:20;;;;;;;46.77;18.30;;;;;;;2.02;100.00;100509.63;5239623;28;20538;-84
2021/12/07 02:07:52;;;;;;;42.10;16.90;;;;;;;2.02;100.00;100513.06;5239890;28;20033;-88
2021/12/07 02:10:26;;;;;;;41.73;16.30;;;;;;;2.04;100.00;100515.66;5243195;28;20079;-89
2021/12/07 02:13:04;;;;;;;39.63;16.35;;;;;;;2.05;100.00;100531.09;5240935;28;20507;-85
2021/12/07 02:15:36;;;;;;;33.80;14.23;;;;;;;2.02;100.00;100531.06;5242086;28;20079;-88
2021/12/07 02:18:07;;;;;;;37.20;13.33;;;;;;;1.94;100.00;100532.63;5258472;28;20013;-74
2021/12/07 02:20:39;;;;;;;37.47;12.40;;;;;;;1.97;100.00;100522.41;5261680;28;20041;-75
2021/12/07 02:23:11;;;;;;;38.13;12.98;;;;;;;1.98;100.00;100535.28;5258676;28;20037;-87
2021/12/07 02:25:43;;;;;;;30.17;12.33;;;;;;;2.03;100.00;100537.06;5250325;28;20044;-89
2021/12/07 02:28:16;;;;;;;38.70;10.65;;;;;;;2.06;100.00;100544.81;5247418;28;20036;-82
2021/12/07 02:30:47;;;;;;;26.08;9.85;;;;;;;2.11;100.00;100546.66;5224232;28;20037;-86
2021/12/07 02:33:19;;;;;;;36.47;12.10;;;;;;;2.06;100.00;100549.97;5239726;28;20045;-87
2021/12/07 02:35:51;;;;;;;33.42;10.10;;;;;;;2.10;100.00;100552.63;5238388;28;20025;-82
2021/12/07 02:38:22;;;;;;;24.30;9.33;;;;;;;2.06;100.00;100558.56;5237449;28;20029;-79
2021/12/07 02:40:54;;;;;;;27.37;8.57;;;;;;;2.03;100.00;100566.22;5237562;28;20469;-78
2021/12/07 02:43:25;;;;;;;33.83;8.50;;;;;;;1.96;100.00;100562.63;5237108;28;20572;-76
2021/12/07 02:45:57;;;;;;;26.67;8.27;;;;;;;2.05;100.00;100571.38;5237084;28;20033;-77
2021/12/07 02:48:28;;;;;;;34.77;8.63;;;;;;;2.02;100.00;100574.75;5236941;28;20026;-82
2021/12/07 02:51:00;;;;;;;32.83;8.13;;;;;;;2.06;100.00;100576.56;5236328;28;20329;-78
2021/12/07 02:53:34;;;;;;;25.97;7.73;;;;;;;2.07;100.00;100578.28;5237657;28;20049;-80
2021/12/07 02:56:08;;;;;;;22.45;6.45;;;;;;;1.89;100.00;100583.94;5239044;28;20104;-81
2021/12/07 02:58:44;;;;;;;25.08;7.45;;;;;;;1.92;100.00;100593.44;5246042;28;20037;-82
2021/12/07 03:01:22;;;;;;;27.15;6.68;;;;;;;1.93;100.00;100590.88;5246910;28;20049;-83
2021/12/07 03:04:02;;;;;;;37.10;9.85;;;;;;;1.87;100.00;100593.34;5253139;28;20048;-84
2021/12/07 03:26:27;;;;;;;21.75;6.88;;;;;;;1.78;100.00;100621.41;5239057;28;20116;-87
2021/12/07 03:29:00;;;;;;;33.00;7.03;;;;;;;1.72;100.00;100622.13;5239772;28;20108;-89
2021/12/07 03:31:33;;;;;;;25.38;7.05;;;;;;;1.67;100.00;100623.75;5238552;28;20029;-86
2021/12/07 03:34:04;;;;;;;28.30;6.88;;;;;;;1.66;100.00;100628.84;5245089;28;20040;-84
2021/12/07 03:36:36;;;;;;;27.27;6.47;;;;;;;1.67;100.00;100630.59;5244022;28;20435;-85
2021/12/07 03:39:07;;;;;;;32.13;6.90;;;;;;;1.59;100.00;100638.16;5238950;28;20034;-86
2021/12/07 03:41:39;;;;;;;27.03;7.37;;;;;;;1.58;100.00;100645.00;5236749;28;20025;-77
2021/12/07 03:44:10;;;;;;;31.93;7.00;;;;;;;1.55;100.00;100646.63;5238249;28;20040;-85
2021/12/07 03:46:42;;;;;;;27.80;7.50;;;;;;;1.55;100.00;100652.63;5237998;28;20033;-83
2021/12/07 03:49:13;;;;;;;37.23;8.20;;;;;;;1.47;100.00;100661.88;5237917;28;20075;-86
2021/12/07 03:51:45;;;;;;;36.77;8.23;;;;;;;1.58;100.00;100664.69;5242031;28;20127;-84
2021/12/07 03:54:16;;;;;;;27.33;7.80;;;;;;;1.52;100.00;100664.56;5242691;28;20067;-80
2021/12/07 03:57:09;;;;;;;24.97;7.83;;;;;;;1.48;100.00;100655.88;5242716;28;20033;-87
2021/12/07 03:59:41;;;;;;;23.25;7.90;;;;;;;1.57;100.00;100665.50;5242070;28;20498;-82
2021/12/07 04:02:12;;;;;;;33.47;7.80;;;;;;;1.55;100.00;100672.34;5244112;28;20056;-76
2021/12/07 04:04:44;;;;;;;35.83;7.87;;;;;;;1.62;100.00;100662.19;5243375;28;20130;-83
2021/12/07 04:07:15;;;;;;;29.67;6.30;;;;;;;1.50;100.00;100658.50;5260557;28;20334;-77
2021/12/07 04:09:46;;;;;;;32.63;6.40;;;;;;;1.44;100.00;100661.81;5263018;28;20021;-81
2021/12/07 04:12:18;;;;;;;33.00;6.67;;;;;;;1.41;100.00;100654.88;5249045;28;20057;-85
2021/12/07 04:14:49;;;;;;;29.17;6.87;;;;;;;1.36;100.00;100665.91;5246086;28;20040;-85
2021/12/07 04:17:20;;;;;;;27.07;6.30;;;;;;;1.33;100.00;100671.81;5252581;28;20037;-76
2021/12/07 04:19:52;;;;;;;28.67;7.00;;;;;;;1.37;100.00;100677.91;5253004;28;20076;-80
2021/12/07 04:22:25;;;;;;;22.17;6.90;;;;;;;1.37;100.00;100668.50;5244916;28;20029;-84
2021/12/07 04:24:56;;;;;;;33.78;7.43;;;;;;;1.34;100.00;100677.84;5241367;28;20032;-85
2021/12/07 04:27:29;;;;;;;34.67;7.43;;;;;;;1.36;100.00;100673.59;5241248;28;20030;-83
2021/12/07 04:30:02;;;;;;;35.85;7.07;;;;;;;1.35;100.00;100683.00;5241144;28;20044;-83
2021/12/07 04:32:33;;;;;;;27.63;7.13;;;;;;;1.33;100.00;100682.09;5241634;28;20025;-87
2021/12/07 04:35:07;;;;;;;28.50;5.97;;;;;;;1.24;100.00;100681.88;5241345;28;20509;-79
2021/12/07 04:37:40;;;;;;;31.45;5.70;;;;;;;1.26;100.00;100681.09;5241394;28;20033;-84
2021/12/07 04:40:15;;;;;;;26.65;5.85;;;;;;;1.23;100.00;100672.47;5240644;28;20040;-83
2021/12/07 04:42:47;;;;;;;20.35;6.13;;;;;;;1.33;100.00;100691.50;5240205;28;20504;-84
2021/12/07 04:59:44;;;;;;;33.03;6.72;;;;;;;1.40;100.00;100706.22;5238548;28;20037;-82
2021/12/07 05:02:17;;;;;;;27.73;6.78;;;;;;;1.33;100.00;100687.22;5239638;28;20026;-76
2021/12/07 05:04:49;;;;;;;32.03;6.15;;;;;;;1.30;100.00;100706.84;5247847;28;20046;-85
2021/12/07 05:07:28;;;;;;;37.67;6.90;;;;;;;1.16;100.00;100716.78;5252656;28;20097;-81
2021/12/07 05:18:19;;;;;;;34.70;8.45;;;;;;;1.02;100.00;100725.00;5252762;28;20045;-77
2021/12/07 05:37:58;;;;;;;26.10;8.50;;;;;;;0.65;100.00;100761.69;5250464;28;20065;-78
2021/12/07 05:40:34;;;;;;;34.00;10.05;;;;;;;0.61;100.00;100755.59;5251683;28;20030;-80
2021/12/07 05:43:05;;;;;;;39.28;10.52;;;;;;;0.63;100.00;100765.88;5227625;28;20487;-81
2021/12/07 05:45:38;;;;;;;35.50;12.27;;;;;;;0.65;100.00;100771.94;5240310;28;20029;-83
2021/12/07 05:48:09;;;;;;;;;;;;;;;0.65;100.00;100782.22;5240548;28;20057;-88
2021/12/07 05:50:42;;;;;;;38.50;13.13;;;;;;;0.65;100.00;100788.19;5240623;28;19917;-80
2021/12/07 05:53:14;;;;;;;44.78;14.52;;;;;;;0.60;100.00;100787.22;5240064;28;20053;-86
2021/12/07 05:55:45;;;;;;;42.33;13.50;;;;;;;0.62;100.00;100797.50;5240850;28;20639;-90
2021/12/07 05:58:19;;;;;;;35.63;13.60;;;;;;;0.53;100.00;100799.00;5238938;28;20033;-85
2021/12/07 06:00:50;;;;;;;41.80;13.50;;;;;;;0.53;100.00;100798.09;5240117;28;20148;-88
2021/12/07 06:03:22;;;;;;;45.87;15.07;;;;;;;0.54;100.00;100805.84;5238778;28;20526;-89
2021/12/07 06:05:54;;;;;;;46.13;14.43;;;;;;;0.53;100.00;100801.56;5239366;28;20620;-85
2021/12/07 06:08:27;;;;;;;44.22;15.55;;;;;;;0.53;100.00;100799.00;5243477;28;20025;-79
2021/12/07 06:10:59;;;;;;;44.03;13.63;;;;;;;0.45;100.00;100803.03;5242796;28;20504;-86
2021/12/07 06:13:30;;;;;;;46.70;14.53;;;;;;;0.42;100.00;100802.94;5241421;28;20184;-86
2021/12/07 06:16:06;;;;;;;49.33;13.57;;;;;;;0.32;100.00;100809.50;5243033;28;20068;-80
2021/12/07 06:18:37;;;;;;;47.03;13.85;;;;;;;0.34;100.00;100797.59;5242248;28;20069;-80
2021/12/07 06:21:10;;;;;;;40.40;14.00;;;;;;;0.34;100.00;100789.91;5257005;28;20040;-84
2021/12/07 06:23:42;;;;;;;52.40;14.68;;;;;;;0.30;100.00;100793.19;5254914;28;20151;-81
2021/12/07 06:26:14;;;;;;;54.73;15.53;;;;;;;0.26;100.00;100799.06;5260535;28;20002;-72
2021/12/07 06:28:45;;;;;;;59.75;17.73;;;;;;;0.31;100.00;100806.91;5259533;28;20072;-77
2021/12/07 06:31:17;;;;;;;50.00;15.40;;;;;;;0.28;100.00;100809.38;5245134;28;20061;-89
2021/12/07 06:33:48;;;;;;;50.33;17.37;;;;;;;0.31;100.00;100815.44;5240827;28;20037;-84
2021/12/07 06:36:20;;;;;;;50.50;16.27;;;;;;;0.28;100.00;100811.94;5239794;28;20246;-81
2021/12/07 06:38:51;;;;;;;48.27;15.20;;;;;;;0.26;100.00;100808.44;5240202;28;20048;-88
2021/12/07 06:41:23;;;;;;;50.63;17.53;;;;;;;0.29;100.00;100811.97;5241338;28;20048;-84
2021/12/07 06:43:54;;;;;;;53.20;17.00;;;;;;;0.33;100.00;100810.38;5240255;28;20041;-88
2021/12/07 06:46:26;;;;;;;50.87;17.97;;;;;;;0.38;100.00;100807.94;5241465;28;20108;-89
2021/12/07 06:48:57;;;;;;;53.37;18.90;;;;;;;0.38;100.00;100813.06;5240439;28;20517;-82
2021/12/07 06:51:29;;;;;;;47.37;16.93;;;;;;;0.34;100.00;100812.97;5251272;28;20081;-74
2021/12/07 06:54:00;;;;;;;47.27;16.80;;;;;;;0.29;100.00;100806.84;5258841;28;20028;-80
2021/12/07 06:56:31;;;;;;;50.70;16.83;;;;;;;0.27;100.00;100811.03;5257271;28;20029;-79
2021/12/07 06:59:04;;;;;;;58.17;16.83;;;;;;;0.34;100.00;100814.69;5249287;28;20158;-84
2021/12/07 07:01:36;;;;;;;63.53;18.33;;;;;;;0.30;100.00;100816.25;5245361;28;20087;-78
2021/12/07 07:04:08;;;;;;;43.00;16.63;;;;;;;0.36;100.00;100821.56;5247578;28;20037;-77
2021/12/07 07:06:39;;;;;;;55.15;19.25;;;;;;;0.33;100.00;100825.75;5251147;28;20088;-86
2021/12/07 07:09:12;;;;;;;63.37;17.90;;;;;;;0.38;100.00;100837.00;5244912;28;20373;-88
2021/12/07 07:11:44;;;;;;;58.35;18.00;;;;;;;0.36;100.00;100824.16;5239925;28;20067;-82
2021/12/07 07:14:16;;;;;;;42.83;18.23;;;;;;;0.30;100.00;100829.09;5239220;28;20029;-86
2021/12/07 07:16:47;;;;;;;54.53;19.10;;;;;;;0.33;100.00;100828.31;5239796;28;20018;-88
2021/12/07 07:19:19;;;;;;;65.47;20.83;;;;;;;0.38;100.00;100825.91;5240115;28;20104;-87
2021/12/07 07:21:51;;;;;;;57.10;20.33;;;;;;;0.34;100.00;100823.25;5240583;28;20033;-79
2021/12/07 07:24:22;;;;;;;51.93;19.90;;;;;;;0.40;100.00;100829.38;5241204;28;20025;-83
2021/12/07 07:26:54;;;;;;;53.80;18.97;;;;;;;0.35;100.00;100821.53;5241496;28;20469;-89
2021/12/07 07:29:26;;;;;;;57.07;19.50;;;;;;;0.35;100.00;100831.78;5251263;28;20037;-79
2021/12/07 07:31:58;;;;;;;54.45;21.30;;;;;;;0.34;100.00;100838.63;5251479;28;20025;-83
2021/12/07 07:34:30;;;;;;;43.38;18.02;;;;;;;0.41;100.00;100836.25;5260286;28;20021;-79
2021/12/07 07:37:02;;;;;;;52.10;19.05;;;;;;;0.48;100.00;100841.59;5259219;28;20068;-73
2021/12/07 07:39:33;;;;;;;50.40;18.10;;;;;;;0.52;100.00;100837.44;5248889;28;20076;-78
2021/12/07 07:42:06;;;;;;;55.77;18.53;;;;;;;0.61;100.00;100845.41;5258206;28;20022;-78
2021/12/07 07:44:38;;;;;;;50.90;17.73;;;;;;;0.59;100.00;100841.03;5258829;28;20026;-75
2021/12/07 07:47:09;;;;;;;66.23;20.10;;;;;;;0.62;100.00;100841.97;5258024;28;20040;-82
2021/12/07 07:49:40;;;;;;;59.43;18.83;;;;;;;0.66;100.00;100842.94;5256426;28;20052;-76
2021/12/07 07:52:12;;;;;;;61.70;19.23;;;;;;;0.65;100.00;100836.94;5256544;28;20025;-73
2021/12/07 07:54:43;;;;;;;46.17;17.80;;;;;;;0.65;100.00;100829.25;5253176;28;20025;-79
2021/12/07 07:57:15;;;;;;;50.93;18.57;;;;;;;0.65;100.00;100833.53;5255344;28;20037;-81
2021/12/07 07:59:46;;;;;;;48.67;18.30;;;;;;;0.62;100.00;100823.16;5254788;28;20844;-76
2021/12/07 08:02:18;;;;;;;48.87;17.73;;;;;;;0.63;100.00;100822.31;5248581;28;20076;-90
2021/12/07 08:04:49;;;;;;;50.37;17.23;;;;;;;0.66;100.00;100827.53;5243086;28;20284;-88
2021/12/07 08:07:21;;;;;;;54.47;16.03;;;;;;;0.69;100.00;100836.22;5240112;28;20037;-82
2021/12/07 08:09:52;;;;;;;46.17;18.17;;;;;;;0.68;100.00;100836.16;5241655;28;20056;-86
2021/12/07 08:12:24;;;;;;;46.77;16.27;;;;;;;0.70;100.00;100845.63;5238537;28;20099;-88
2021/12/07 08:14:56;;;;;;;42.22;15.45;;;;;;;0.72;100.00;100841.44;5244816;28;20022;-81
2021/12/07 08:17:27;;;;;;;45.93;16.87;;;;;;;0.76;100.00;100847.53;5256687;28;20029;-76
2021/12/07 08:19:59;;;;;;;45.03;15.70;;;;;;;0.80;100.00;100853.59;5254140;28;20251;-75
2021/12/07 08:22:31;;;;;;;41.88;14.45;;;;;;;0.80;100.00;100851.88;5247927;28;20033;-86
2021/12/07 08:25:03;;;;;;;35.13;13.37;;;;;;;0.83;100.00;100856.25;5238645;28;20414;-88
2021/12/07 08:27:34;;;;;;;45.30;14.88;;;;;;;0.84;100.00;100865.69;5240079;28;20033;-84
2021/12/07 08:30:09;;;;;;;31.87;13.30;;;;;;;0.86;100.00;100870.03;5239337;28;20461;-81
2021/12/07 08:32:45;;;;;;;35.33;12.55;;;;;;;0.84;100.00;100870.84;5238862;28;20111;-89
2021/12/07 08:35:18;;;;;;;37.05;12.10;;;;;;;0.84;100.00;100870.84;5238822;28;20045;-89
2021/12/07 08:37:50;;;;;;;37.08;11.77;;;;;;;0.85;100.00;100867.44;5244189;28;20038;-81
2021/12/07 08:40:23;;;;;;;30.45;10.13;;;;;;;0.86;100.00;100866.59;5244258;28;20025;-78
2021/12/07 08:42:55;;;;;;;33.28;10.15;;;;;;;0.87;100.00;100868.31;5256147;28;20043;-77
2021/12/07 08:45:27;;;;;;;31.85;10.73;;;;;;;0.86;100.00;100875.16;5254887;28;20038;-78
2021/12/07 08:47:59;;;;;;;35.07;10.77;;;;;;;0.93;100.00;100865.94;5245935;28;20056;-81
2021/12/07 08:50:32;;;;;;;32.50;10.73;;;;;;;1.01;100.00;100861.88;5240383;28;20025;-85
2021/12/07 08:53:07;;;;;;;32.38;10.45;;;;;;;1.08;100.00;100862.94;5240669;28;20124;-86
2021/12/07 09:01:24;;;;;;;26.58;8.15;;;;;;;1.52;100.00;100849.53;5241708;28;19916;-83
2021/12/07 09:03:57;;;;;;;22.05;7.75;;;;;;;1.71;100.00;100844.00;5245280;28;20036;-87
2021/12/07 09:06:30;;;;;;;26.75;8.80;;;;;;;1.83;100.00;100838.28;5240109;28;20062;-86
2021/12/07 09:09:02;;;;;;;27.80;8.55;;;;;;;1.92;100.00;100830.78;5239084;28;20037;-76
2021/12/07 09:11:34;;;;;;;21.60;7.60;;;;;;;2.03;100.00;100830.16;5239752;28;20569;-86
2021/12/07 09:14:09;;;;;;;28.30;7.20;;;;;;;2.20;100.00;100831.41;5246220;28;20537;-83
2021/12/07 09:16:45;;;;;;;21.98;7.63;;;;;;;2.33;100.00;100827.41;5245582;28;20156;-82
2021/12/07 09:19:16;;;;;;;20.65;7.28;;;;;;;2.42;100.00;100827.59;5241074;28;20028;-88
2021/12/07 09:21:48;;;;;;;19.83;7.53;;;;;;;2.42;100.00;100825.03;5240212;28;20504;-84
2021/12/07 09:24:20;;;;;;;17.43;7.33;;;;;;;2.58;100.00;100840.78;5238622;28;20484;-76
2021/12/07 09:26:52;;;;;;;17.57;6.03;;;;;;;2.70;100.00;100835.88;5238904;28;20380;-84
2021/12/07 09:29:24;;;;;;;23.75;7.47;;;;;;;2.84;100.00;100839.59;5238443;28;20056;-83
2021/12/07 09:31:56;;;;;;;21.60;6.45;;;;;;;3.11;100.00;100838.41;5239217;28;20025;-81
2021/12/07 09:34:28;;;;;;;20.35;6.60;;;;;;;3.25;100.00;100836.06;5238572;28;20033;-80
2021/12/07 09:36:59;;;;;;;15.67;5.03;;;;;;;3.09;97.26;100829.75;5239096;28;20021;-80
2021/12/07 09:39:31;;;;;;;13.27;5.20;;;;;;;3.30;98.16;100826.72;5239517;28;20033;-84
2021/12/07 09:42:02;;;;;;;14.70;5.83;;;;;;;3.35;96.04;100839.66;5238882;28;20071;-84
2021/12/07 09:44:34;;;;;;;18.53;6.03;;;;;;;3.57;95.72;100835.75;5246565;28;20040;-74
2021/12/07 09:47:05;;;;;;;19.70;6.23;;;;;;;3.67;94.87;100824.78;5250246;28;20107;-77
2021/12/07 09:49:36;;;;;;;20.23;5.10;;;;;;;3.85;93.84;100834.50;5247173;28;20017;-80
2021/12/07 09:52:08;;;;;;;21.20;6.53;;;;;;;3.89;92.15;100833.69;5249438;28;20468;-75
2021/12/07 09:54:40;;;;;;;18.03;5.23;;;;;;;4.26;95.45;100834.22;5246863;28;20033;-84
2021/12/07 09:57:17;;;;;;;17.07;5.53;;;;;;;4.67;94.08;100833.03;5244780;28;20044;-74
2021/12/07 09:59:50;;;;;;;16.30;5.32;;;;;;;4.74;89.81;100827.09;5241274;28;20032;-84
2021/12/07 10:02:22;;;;;;;12.57;4.93;;;;;;;5.22;90.57;100831.06;5242139;28;20030;-80
2021/12/07 10:04:53;;;;;;;20.40;4.82;;;;;;;5.19;88.84;100823.28;5239719;28;20392;-85
2021/12/07 10:07:24;;;;;;;13.63;4.47;;;;;;;5.18;86.39;100816.38;5240135;28;20037;-83
2021/12/07 10:09:56;;;;;;;17.33;4.80;;;;;;;5.28;85.36;100818.19;5238670;28;20021;-85
2021/12/07 10:12:28;;;;;;;16.27;5.30;;;;;;;5.27;85.03;100823.34;5238501;28;20033;-77
2021/12/07 10:15:08;;;;;;;13.75;4.85;;;;;;;5.25;86.62;100819.91;5239322;28;20014;-85
2021/12/07 10:17:42;;;;;;;13.68;4.95;;;;;;;5.42;84.44;100810.56;5238326;28;20065;-83
2021/12/07 10:20:43;;;;;;;13.68;4.72;;;;;;;5.59;84.44;100796.94;5237639;28;20017;-82
2021/12/07 10:23:14;;;;;;;21.88;5.53;;;;;;;6.23;85.56;100799.09;5237565;28;20033;-83
2021/12/07 10:25:55;;;;;;;15.90;4.30;;;;;;;6.53;83.19;100806.13;5238190;28;20488;-84
2021/12/07 10:28:38;;;;;;;16.58;4.60;;;;;;;6.69;80.23;100807.06;5237211;28;20045;-80
2021/12/07 10:31:09;;;;;;;18.20;5.18;;;;;;;6.47;79.72;100807.81;5236995;28;20025;-73
2021/12/07 10:33:49;;;;;;;18.30;5.43;;;;;;;6.60;78.48;100804.44;5237011;28;20036;-80
2021/12/07 10:36:25;;;;;;;19.90;5.68;;;;;;;6.75;77.83;100801.03;5238028;28;20026;-83
2021/12/07 10:39:02;;;;;;;14.75;5.18;;;;;;;6.98;76.55;100789.88;5240781;28;20033;-84
2021/12/07 10:41:55;;;;;;;13.55;4.70;;;;;;;7.28;74.13;100789.06;5239811;28;20025;-79
2021/12/07 10:44:28;;;;;;;14.63;4.72;;;;;;;7.35;75.20;100774.34;5238049;28;20026;-82
2021/12/07 10:47:08;;;;;;;13.10;4.72;;;;;;;7.49;74.49;100767.44;5222704;28;20048;-82
2021/12/07 10:49:47;;;;;;;15.60;5.40;;;;;;;7.84;72.56;100763.94;5239095;28;20029;-83
2021/12/07 10:52:20;;;;;;;14.73;5.40;;;;;;;7.92;72.74;100762.22;5236497;28;20108;-85
2021/12/07 10:54:56;;;;;;;14.80;5.55;;;;;;;8.04;72.11;100759.56;5237209;28;20040;-75
2021/12/07 10:57:52;;;;;;;11.13;4.82;;;;;;;8.61;72.31;100755.91;5237429;28;20485;-78
2021/12/07 11:00:26;;;;;;;15.80;5.75;;;;;;;8.81;68.94;100741.97;5198205;28;20042;-81
2021/12/07 11:03:10;;;;;;;13.98;4.13;;;;;;;8.99;68.67;100747.03;5198348;28;20070;-77
2021/12/07 11:05:46;;;;;;;18.10;5.30;;;;;;;8.76;67.44;100736.78;5193230;28;20054;-83
2021/12/07 11:08:20;;;;;;;15.73;5.25;;;;;;;8.93;66.89;100721.94;5193327;28;20581;-81
2021/12/07 11:10:54;;;;;;;17.92;5.95;;;;;;;8.99;66.71;100718.41;5192892;28;20157;-80
2021/12/07 11:13:35;;;;;;;11.98;4.10;;;;;;;9.67;67.23;100717.81;5192965;28;20049;-80
2021/12/07 11:16:14;;;;;;;17.30;5.05;;;;;;;9.69;64.06;100705.66;5202522;28;20030;-80
2021/12/07 11:18:48;;;;;;;17.65;5.00;;;;;;;9.82;63.67;100709.88;5201277;28;20090;-80
2021/12/07 11:21:20;;;;;;;13.13;5.47;;;;;;;10.25;63.68;100703.28;5197088;28;20038;-81
2021/12/07 11:23:57;;;;;;;17.60;5.53;;;;;;;10.68;62.98;100697.50;5192451;28;20424;-78
2021/12/07 11:31:55;;;;;;;13.88;5.63;;;;;;;10.31;59.37;100692.78;5191732;28;20030;-80
2021/12/07 11:34:31;;;;;;;13.48;4.82;;;;;;;10.40;59.28;100699.66;5191806;28;20041;-77
2021/12/07 11:37:06;;;;;;;13.55;5.95;;;;;;;9.81;58.47;100697.72;5208396;28;20473;-81
2021/12/07 11:39:53;;;;;;;15.20;5.43;;;;;;;10.33;59.75;100692.78;5235049;28;20022;-82
2021/12/07 11:42:28;;;;;;;16.85;5.85;;;;;;;11.14;57.62;100690.72;5217178;28;20141;-79
2021/12/07 11:45:07;;;;;;;16.67;5.07;;;;;;;11.21;55.23;100678.44;5235143;28;20033;-80
2021/12/07 11:47:40;;;;;;;14.52;5.95;;;;;;;11.09;55.10;100687.31;5235236;28;20029;-80
2021/12/07 11:50:17;;;;;;;15.65;5.38;;;;;;;11.43;55.53;100681.50;5234600;28;20420;-80
2021/12/07 11:52:53;;;;;;;11.63;4.82;;;;;;;11.65;54.21;100676.75;5234351;28;20033;-75
2021/12/07 11:55:26;;;;;;;11.05;4.53;;;;;;;12.00;55.15;100676.09;5234497;28;20026;-81
2021/12/07 11:57:57;;;;;;;11.23;4.15;;;;;;;12.35;52.86;100668.44;5234627;28;20041;-77
2021/12/07 12:00:36;;;;;;;16.77;5.70;;;;;;;12.29;54.95;100663.31;5236556;28;20035;-80
2021/12/07 12:03:14;;;;;;;15.13;5.38;;;;;;;12.51;51.90;100646.28;5236729;28;20388;-78
2021/12/07 12:05:48;;;;;;;18.55;4.88;;;;;;;12.18;51.33;100650.47;5246768;28;20052;-75
2021/12/07 12:08:21;;;;;;;10.88;4.75;;;;;;;11.51;51.53;100648.28;5257000;28;20032;-77
2021/12/07 12:11:00;;;;;;;13.77;4.68;;;;;;;11.85;51.72;100652.88;5251683;28;20021;-79
2021/12/07 12:13:39;;;;;;;11.80;4.03;;;;;;;11.09;53.12;100635.16;5240841;28;20025;-81
2021/12/07 12:16:22;;;;;;;13.70;4.80;;;;;;;10.93;53.84;100637.16;5239611;28;20041;-81
2021/12/07 12:19:15;;;;;;;15.48;4.22;;;;;;;11.42;55.42;100638.91;5239135;28;20091;-78
2021/12/07 12:22:29;;;;;;;13.63;4.13;;;;;;;11.54;56.42;100618.69;5239390;28;20026;-80
2021/12/07 12:25:11;;;;;;;;;;;;;;;11.75;55.32;100620.88;5239320;28;20117;-82
2021/12/07 12:27:46;;;;;;;11.25;4.35;;;;;;;11.05;53.07;100616.09;5237449;28;20015;-81
2021/12/07 12:30:31;;;;;;;15.90;4.65;;;;;;;10.89;55.20;100599.84;5238862;28;20025;-79
2021/12/07 12:33:12;;;;;;;15.65;3.88;;;;;;;10.31;57.05;100611.16;5238238;28;20036;-76
2021/12/07 12:35:52;;;;;;;17.77;4.07;;;;;;;9.84;57.24;100600.50;5238522;28;20025;-80
2021/12/07 12:38:25;;;;;;;14.07;4.40;;;;;;;8.99;58.97;100592.78;5238748;28;20029;-82
2021/12/07 12:41:08;;;;;;;10.57;3.85;;;;;;;8.64;60.85;100594.78;5238859;28;20026;-77
2021/12/07 12:43:42;;;;;;;;;;;;;;;8.37;61.96;100586.31;5240155;28;20034;-84
2021/12/07 12:46:29;;;;;;;11.75;4.35;;;;;;;8.75;63.46;100577.34;5239158;28;19913;-80
2021/12/07 12:49:06;;;;;;;10.73;3.53;;;;;;;8.93;61.60;100554.69;5240179;28;20107;-79
2021/12/07 12:51:48;;;;;;;9.95;3.85;;;;;;;9.29;61.12;100561.25;5239048;28;20034;-80
2021/12/07 12:54:20;;;;;;;10.85;3.92;;;;;;;9.42;58.83;100548.13;5239521;28;20033;-78
2021/12/07 12:56:51;;;;;;;16.90;4.30;;;;;;;9.50;59.68;100535.88;5221024;28;20508;-75
2021/12/07 12:59:23;;;;;;;9.77;3.10;;;;;;;9.31;59.57;100519.63;5238882;28;20130;-79
2021/12/07 13:01:56;;;;;;;10.30;3.17;;;;;;;9.42;61.26;100516.88;5239331;28;20025;-82
2021/12/07 13:04:30;;;;;;;11.38;3.28;;;;;;;9.20;59.84;100511.94;5239096;28;20032;-80
2021/12/07 13:09:46;;;;;;;11.98;3.45;;;;;;;8.49;61.06;100481.47;5241426;28;20049;-80
2021/12/07 13:12:24;;;;;;;11.98;2.80;;;;;;;8.38;62.69;100465.09;5248068;28;20040;-74
2021/12/07 13:15:04;;;;;;;9.82;2.92;;;;;;;8.15;63.11;100458.34;5259747;28;20044;-72
2021/12/07 13:17:48;;;;;;;20.17;4.40;;;;;;;8.27;64.57;100448.72;5254929;28;20053;-74
2021/12/07 13:20:23;;;;;;;9.20;3.72;;;;;;;8.11;64.38;100455.78;5242082;28;20443;-77
2021/12/07 13:22:57;;;;;;;16.50;3.50;;;;;;;7.81;63.81;100460.34;5240383;28;20120;-72
2021/12/07 13:25:33;;;;;;;13.23;3.10;;;;;;;7.90;64.55;100449.88;5240500;28;20037;-76
2021/12/07 13:28:10;;;;;;;11.40;3.58;;;;;;;7.85;64.44;100446.47;5239134;28;20496;-79
2021/12/07 13:30:44;;;;;;;11.95;3.97;;;;;;;7.91;64.24;100446.41;5241420;28;20207;-74
2021/12/07 13:33:40;;;;;;;12.18;3.65;;;;;;;7.99;65.22;100441.19;5241298;28;20026;-78
2021/12/07 13:36:29;;;;;;;11.57;3.67;;;;;;;7.81;65.62;100437.00;5239210;28;20040;-79
2021/12/07 13:39:13;;;;;;;12.63;2.88;;;;;;;7.58;65.30;100439.72;5239100;28;20493;-79
2021/12/07 13:41:53;;;;;;;11.52;3.47;;;;;;;7.61;66.36;100431.91;5238666;28;20033;-79
2021/12/07 13:44:27;;;;;;;10.15;3.97;;;;;;;7.36;66.28;100428.59;5238390;28;20029;-79
2021/12/07 13:47:04;;;;;;;12.73;3.65;;;;;;;7.28;66.87;100426.91;5238782;28;20289;-82